createdAt,value
2023-05-14T00:00:24.598Z,15.57
2023-05-14T00:03:26.978Z,12.40
2023-05-14T00:06:29.116Z,11.73
2023-05-14T00:09:32.091Z,11.80
2023-05-14T00:12:34.199Z,12.43
2023-05-14T00:15:36.292Z,13.47
2023-05-14T00:18:38.616Z,14.63
2023-05-14T00:21:40.918Z,12.80
2023-05-14T00:24:42.986Z,15.88
2023-05-14T00:27:45.075Z,15.25
2023-05-14T00:30:47.151Z,15.20
2023-05-14T00:33:50.826Z,12.73
2023-05-14T00:36:52.943Z,13.13
2023-05-14T00:39:55.069Z,11.07
2023-05-14T00:42:57.163Z,14.10
2023-05-14T00:45:59.316Z,14.40
2023-05-14T00:49:01.630Z,12.20
2023-05-14T00:52:03.727Z,13.15
2023-05-14T00:55:06.339Z,14.17
2023-05-14T00:58:10.607Z,12.50
2023-05-14T01:01:15.416Z,18.42
2023-05-14T01:04:17.921Z,12.38
2023-05-14T01:07:32.077Z,13.55
2023-05-14T01:10:45.966Z,13.33
2023-05-14T01:14:06.825Z,13.73
2023-05-14T01:17:10.891Z,13.90
2023-05-14T01:20:13.082Z,15.90
2023-05-14T01:23:15.083Z,15.13
2023-05-14T01:26:17.281Z,14.07
2023-05-14T01:29:23.312Z,15.80
2023-05-14T01:32:26.092Z,17.10
2023-05-14T01:35:29.559Z,18.53
2023-05-14T01:38:34.252Z,18.17
2023-05-14T01:41:37.352Z,16.80
2023-05-14T01:44:39.356Z,16.80
2023-05-14T01:47:41.516Z,15.27
2023-05-14T01:50:43.614Z,16.40
2023-05-14T01:53:45.718Z,16.92
2023-05-14T01:56:47.796Z,13.50
2023-05-14T01:59:49.807Z,16.15
2023-05-14T02:02:51.911Z,17.55
2023-05-14T02:05:54.001Z,16.05
2023-05-14T02:08:56.164Z,15.10
2023-05-14T02:11:58.260Z,17.42
2023-05-14T02:15:00.495Z,15.73
2023-05-14T02:18:03.211Z,17.83
2023-05-14T02:21:05.789Z,15.40
2023-05-14T02:24:07.861Z,18.48
2023-05-14T02:27:12.850Z,17.08
2023-05-14T02:30:15.075Z,14.80
2023-05-14T02:33:17.704Z,14.43
2023-05-14T02:36:19.804Z,14.85
2023-05-14T02:39:21.867Z,18.88
2023-05-14T02:42:23.879Z,19.10
2023-05-14T02:45:26.827Z,20.20
2023-05-14T02:48:28.902Z,18.67
2023-05-14T02:51:30.936Z,20.67
2023-05-14T02:54:33.014Z,15.90
2023-05-14T02:57:35.126Z,15.80
2023-05-14T03:00:37.160Z,18.90
2023-05-14T03:03:39.999Z,15.67
2023-05-14T03:06:42.547Z,17.38
2023-05-14T03:09:45.331Z,18.35
2023-05-14T03:12:47.733Z,18.42
2023-05-14T03:15:54.843Z,19.60
2023-05-14T03:18:57.611Z,16.13
2023-05-14T03:21:59.677Z,20.15
2023-05-14T03:25:01.677Z,17.25
2023-05-14T03:28:03.993Z,17.07
2023-05-14T03:31:06.097Z,19.83
2023-05-14T03:34:08.161Z,22.58
2023-05-14T03:37:10.453Z,18.88
2023-05-14T03:40:12.635Z,18.85
2023-05-14T03:43:14.803Z,18.10
2023-05-14T03:46:17.547Z,18.15
2023-05-14T03:49:19.634Z,17.80
2023-05-14T03:52:21.769Z,14.55
2023-05-14T03:55:23.870Z,13.93
2023-05-14T03:58:25.981Z,14.77
2023-05-14T04:01:28.583Z,14.70
2023-05-14T04:04:33.443Z,15.82
2023-05-14T04:07:37.028Z,14.85
2023-05-14T04:10:39.111Z,14.10
2023-05-14T04:13:41.232Z,13.98
2023-05-14T04:16:44.758Z,13.32
2023-05-14T04:19:46.813Z,15.35
2023-05-14T04:22:48.841Z,13.03
2023-05-14T04:25:50.816Z,11.73
2023-05-14T04:28:53.055Z,13.07
2023-05-14T04:31:55.094Z,13.20
2023-05-14T04:34:57.149Z,11.07
2023-05-14T04:37:59.391Z,12.13
2023-05-14T04:41:02.246Z,14.63
2023-05-14T04:44:04.372Z,13.63
2023-05-14T04:47:07.090Z,11.63
2023-05-14T04:50:09.866Z,10.93
2023-05-14T04:53:11.940Z,10.75
2023-05-14T04:56:14.063Z,14.07
2023-05-14T04:59:16.633Z,13.67
2023-05-14T05:02:18.621Z,13.35
2023-05-14T05:05:21.020Z,11.18
2023-05-14T05:08:23.328Z,15.03
2023-05-14T05:11:25.366Z,18.60
2023-05-14T05:14:27.664Z,13.18
2023-05-14T05:17:29.807Z,11.35
2023-05-14T05:20:32.603Z,11.20
2023-05-14T05:23:34.630Z,13.33
2023-05-14T05:26:37.068Z,11.90
2023-05-14T05:29:39.066Z,10.88
2023-05-14T05:32:41.219Z,10.93
2023-05-14T05:35:44.572Z,18.30
2023-05-14T05:38:46.612Z,14.77
2023-05-14T05:41:48.733Z,11.43
2023-05-14T05:44:50.747Z,14.18
2023-05-14T05:47:52.979Z,11.23
2023-05-14T05:50:55.031Z,12.57
2023-05-14T05:53:57.036Z,10.90
2023-05-14T05:56:59.624Z,12.63
2023-05-14T06:00:08.018Z,15.17
2023-05-14T06:03:14.766Z,12.05
2023-05-14T06:06:16.955Z,13.00
2023-05-14T06:09:19.042Z,13.38
2023-05-14T06:12:21.865Z,16.33
2023-05-14T06:15:23.901Z,13.40
2023-05-14T06:18:25.942Z,12.80
2023-05-14T06:21:28.019Z,14.48
2023-05-14T06:24:30.040Z,13.45
2023-05-14T06:27:32.117Z,10.93
2023-05-14T06:30:34.127Z,16.05
2023-05-14T06:33:36.554Z,14.25
2023-05-14T06:36:38.691Z,11.77
2023-05-14T06:39:44.220Z,11.70
2023-05-14T06:42:46.200Z,12.30
2023-05-14T06:45:51.898Z,14.43
2023-05-14T06:48:53.975Z,13.85
2023-05-14T06:51:56.048Z,15.25
2023-05-14T06:54:58.196Z,14.83
2023-05-14T06:58:00.179Z,10.85
2023-05-14T07:01:02.316Z,12.93
2023-05-14T07:04:04.435Z,11.75
2023-05-14T07:07:06.512Z,13.75
2023-05-14T07:10:08.680Z,12.67
2023-05-14T07:13:10.769Z,14.60
2023-05-14T07:16:12.890Z,13.02
2023-05-14T07:19:15.045Z,13.07
2023-05-14T07:22:17.172Z,15.60
2023-05-14T07:25:19.242Z,14.03
2023-05-14T07:28:21.267Z,12.30
2023-05-14T07:31:23.525Z,14.35
2023-05-14T07:34:25.597Z,14.48
2023-05-14T07:37:27.692Z,14.30
2023-05-14T07:40:29.704Z,14.30
2023-05-14T07:43:31.822Z,15.20
2023-05-14T07:46:33.893Z,17.85
2023-05-14T07:49:35.971Z,15.38
2023-05-14T07:52:38.016Z,13.57
2023-05-14T07:55:40.355Z,13.20
2023-05-14T07:58:42.397Z,15.75
2023-05-14T08:01:44.538Z,11.80
2023-05-14T08:04:46.650Z,13.57
2023-05-14T08:07:48.703Z,13.10
2023-05-14T08:10:51.085Z,13.80
2023-05-14T08:13:53.202Z,13.35
2023-05-14T08:16:55.329Z,13.20
2023-05-14T08:19:57.461Z,12.80
2023-05-14T08:22:59.577Z,11.60
2023-05-14T08:26:01.601Z,13.90
2023-05-14T08:29:03.604Z,12.73
2023-05-14T08:32:15.608Z,15.23
2023-05-14T08:35:24.477Z,18.27
2023-05-14T08:38:26.492Z,12.30
2023-05-14T08:41:28.526Z,11.17
2023-05-14T08:44:38.842Z,13.82
2023-05-14T08:47:40.931Z,13.02
2023-05-14T08:50:43.790Z,11.95
2023-05-14T08:53:45.801Z,13.33
2023-05-14T08:56:49.374Z,11.30
2023-05-14T08:59:53.467Z,12.80
2023-05-14T09:02:55.915Z,11.60
2023-05-14T09:06:00.079Z,15.77
2023-05-14T09:09:02.585Z,11.43
2023-05-14T09:12:04.825Z,11.00
2023-05-14T09:15:07.079Z,12.50
2023-05-14T09:18:09.976Z,13.15
2023-05-14T09:21:13.586Z,14.98
2023-05-14T09:24:22.346Z,13.63
2023-05-14T09:27:26.004Z,17.13
2023-05-14T09:30:28.273Z,13.90
2023-05-14T09:33:31.089Z,12.88
2023-05-14T09:36:34.520Z,13.50
2023-05-14T09:39:37.377Z,11.23
2023-05-14T09:42:39.898Z,11.00
2023-05-14T09:45:42.502Z,11.65
2023-05-14T09:48:45.990Z,12.43
2023-05-14T09:51:51.366Z,11.30
2023-05-14T09:54:53.638Z,12.23
2023-05-14T09:57:55.714Z,13.27
2023-05-14T10:00:58.422Z,14.07
2023-05-14T10:04:04.220Z,15.02
2023-05-14T10:07:06.550Z,12.30
2023-05-14T10:10:11.704Z,10.87
2023-05-14T10:13:15.123Z,11.20
2023-05-14T10:16:24.724Z,13.35
2023-05-14T10:19:28.144Z,14.32
2023-05-14T10:22:32.110Z,11.32
2023-05-14T10:25:37.577Z,12.37
2023-05-14T10:28:39.935Z,14.17
2023-05-14T10:31:54.658Z,11.88
2023-05-14T10:34:56.675Z,13.63
2023-05-14T10:37:59.041Z,12.52
2023-05-14T10:41:10.266Z,14.33
2023-05-14T10:44:12.563Z,14.60
2023-05-14T10:47:16.341Z,13.38
2023-05-14T10:50:18.535Z,12.75
2023-05-14T10:53:21.252Z,16.50
2023-05-14T10:56:23.411Z,12.50
2023-05-14T10:59:27.473Z,14.23
2023-05-14T11:02:33.340Z,14.70
2023-05-14T11:05:37.365Z,13.63
2023-05-14T11:08:39.909Z,12.43
2023-05-14T11:11:42.054Z,14.60
2023-05-14T11:14:44.125Z,11.70
2023-05-14T11:17:47.398Z,12.63
2023-05-14T11:20:49.549Z,20.13
2023-05-14T11:23:51.551Z,15.98
2023-05-14T11:26:55.826Z,16.37
2023-05-14T11:29:58.263Z,15.47
2023-05-14T11:33:01.977Z,14.00
2023-05-14T11:36:04.578Z,8.43
2023-05-14T11:39:08.042Z,8.65
2023-05-14T11:42:14.833Z,7.33
2023-05-14T11:45:25.445Z,7.77
2023-05-14T11:48:27.495Z,8.68
2023-05-14T11:51:29.563Z,7.53
2023-05-14T11:54:32.797Z,9.73
2023-05-14T11:57:35.273Z,10.20
2023-05-14T12:00:38.187Z,9.23
2023-05-14T12:03:40.397Z,7.25
2023-05-14T12:06:42.653Z,6.82
2023-05-14T12:09:51.648Z,9.43
2023-05-14T12:12:53.905Z,10.20
2023-05-14T12:15:57.899Z,18.17
2023-05-14T12:19:01.844Z,15.68
2023-05-14T12:22:03.981Z,13.55
2023-05-14T12:25:11.424Z,11.75
2023-05-14T12:28:14.448Z,11.67
2023-05-14T12:31:16.529Z,12.20
2023-05-14T12:34:18.614Z,12.95
2023-05-14T12:37:20.714Z,9.07
2023-05-14T12:40:22.933Z,11.88
2023-05-14T12:43:25.201Z,13.27
2023-05-14T12:46:27.742Z,10.83
2023-05-14T12:49:29.831Z,9.80
2023-05-14T12:55:37.151Z,10.57
2023-05-14T12:58:39.214Z,10.73
2023-05-14T13:01:41.599Z,11.67
2023-05-14T13:04:43.811Z,11.52
2023-05-14T13:07:45.977Z,12.57
2023-05-14T13:10:48.221Z,10.90
2023-05-14T13:13:50.712Z,9.13
2023-05-14T13:16:52.869Z,8.77
2023-05-14T13:19:54.986Z,10.70
2023-05-14T13:22:57.369Z,10.55
2023-05-14T13:25:59.394Z,12.63
2023-05-14T13:29:01.390Z,12.63
2023-05-14T13:32:03.697Z,12.27
2023-05-14T13:35:06.067Z,12.80
2023-05-14T13:38:08.099Z,16.77
2023-05-14T13:41:10.159Z,14.05
2023-05-14T13:44:12.179Z,15.83
2023-05-14T13:47:14.248Z,16.97
2023-05-14T13:50:16.521Z,11.40
2023-05-14T13:53:21.776Z,13.30
2023-05-14T13:56:23.844Z,11.73
2023-05-14T13:59:27.924Z,10.60
2023-05-14T14:02:30.381Z,10.77
2023-05-14T14:05:33.722Z,10.70
2023-05-14T14:08:36.044Z,11.90
2023-05-14T14:11:38.124Z,12.02
2023-05-14T14:14:40.202Z,12.03
2023-05-14T14:17:42.355Z,10.87
2023-05-14T14:20:44.417Z,9.52
2023-05-14T14:23:47.068Z,10.20
2023-05-14T14:26:49.125Z,9.77
2023-05-14T14:29:51.210Z,9.27
2023-05-14T14:32:53.470Z,9.05
2023-05-14T14:35:55.991Z,10.15
2023-05-14T14:38:58.148Z,23.15
2023-05-14T14:42:00.153Z,25.63
2023-05-14T14:45:02.193Z,12.40
2023-05-14T14:48:22.958Z,11.52
2023-05-14T14:51:25.011Z,10.77
2023-05-14T14:54:27.012Z,12.52
2023-05-14T14:57:29.135Z,18.07
2023-05-14T15:00:31.218Z,19.57
2023-05-14T15:03:33.377Z,14.65
2023-05-14T15:06:35.507Z,12.95
2023-05-14T15:09:37.677Z,11.40
2023-05-14T15:12:39.750Z,12.27
2023-05-14T15:15:41.784Z,11.87
2023-05-14T15:18:43.936Z,11.93
2023-05-14T15:21:46.182Z,12.98
2023-05-14T15:24:48.213Z,16.42
2023-05-14T15:27:50.485Z,17.60
2023-05-14T15:30:52.984Z,16.40
2023-05-14T15:33:56.157Z,14.05
2023-05-14T15:36:58.259Z,13.30
2023-05-14T15:40:00.402Z,14.10
2023-05-14T15:43:02.641Z,13.80
2023-05-14T15:46:04.672Z,15.13
2023-05-14T15:49:06.749Z,13.13
2023-05-14T15:52:08.794Z,11.77
2023-05-14T15:55:10.924Z,14.43
2023-05-14T15:58:12.981Z,17.33
2023-05-14T16:01:15.010Z,14.55
2023-05-14T16:04:17.065Z,15.50
2023-05-14T16:07:19.120Z,17.02
2023-05-14T16:10:21.704Z,16.63
2023-05-14T16:13:23.882Z,13.53
2023-05-14T16:16:26.139Z,17.20
2023-05-14T16:19:28.346Z,14.98
2023-05-14T16:22:32.060Z,14.70
2023-05-14T16:25:34.167Z,17.33
2023-05-14T16:28:36.211Z,14.90
2023-05-14T16:31:38.409Z,12.43
2023-05-14T16:34:40.724Z,15.63
2023-05-14T16:37:43.078Z,11.57
2023-05-14T16:40:45.388Z,11.20
2023-05-14T16:43:47.687Z,11.02
2023-05-14T16:46:49.775Z,15.32
2023-05-14T16:49:51.895Z,15.57
2023-05-14T16:52:53.944Z,12.43
2023-05-14T16:55:56.053Z,11.80
2023-05-14T16:58:58.137Z,11.40
2023-05-14T17:02:00.283Z,14.20
2023-05-14T17:05:02.568Z,12.35
2023-05-14T17:08:05.322Z,11.65
2023-05-14T17:11:07.469Z,13.77
2023-05-14T17:14:09.484Z,12.48
2023-05-14T17:17:11.573Z,13.55
2023-05-14T17:20:16.122Z,11.80
2023-05-14T17:23:19.911Z,14.87
2023-05-14T17:26:22.737Z,13.73
2023-05-14T17:29:24.842Z,13.93
2023-05-14T17:32:27.122Z,13.88
2023-05-14T17:35:29.237Z,20.08
2023-05-14T17:38:31.306Z,13.73
2023-05-14T17:41:33.340Z,13.50
2023-05-14T17:44:36.501Z,12.05
2023-05-14T17:47:38.615Z,17.10
2023-05-14T17:50:40.847Z,18.77
2023-05-14T17:53:42.822Z,14.67
2023-05-14T17:56:44.871Z,16.10
2023-05-14T17:59:46.907Z,12.68
2023-05-14T18:02:48.986Z,12.82
2023-05-14T18:05:51.299Z,11.40
2023-05-14T18:08:53.352Z,14.40
2023-05-14T18:11:56.952Z,14.07
2023-05-14T18:14:59.206Z,12.93
2023-05-14T18:18:01.335Z,13.70
2023-05-14T18:21:03.500Z,13.75
2023-05-14T18:24:05.713Z,13.50
2023-05-14T18:27:08.346Z,13.73
2023-05-14T18:30:16.973Z,19.33
2023-05-14T18:33:19.111Z,30.98
2023-05-14T18:36:21.305Z,20.52
2023-05-14T18:39:23.960Z,14.90
2023-05-14T18:42:26.008Z,16.20
2023-05-14T18:45:28.206Z,13.77
2023-05-14T18:48:30.938Z,12.35
2023-05-14T18:51:32.978Z,14.73
2023-05-14T18:54:35.017Z,13.33
2023-05-14T18:57:37.183Z,13.07
2023-05-14T19:00:39.261Z,11.82
2023-05-14T19:03:42.444Z,12.75
2023-05-14T19:06:44.595Z,13.80
2023-05-14T19:09:46.662Z,11.23
2023-05-14T19:12:49.215Z,13.82
2023-05-14T19:15:51.390Z,10.80
2023-05-14T19:18:53.635Z,13.48
2023-05-14T19:21:55.817Z,12.77
2023-05-14T19:24:57.823Z,14.83
2023-05-14T19:28:01.686Z,13.80
2023-05-14T19:31:04.354Z,10.50
2023-05-14T19:34:06.735Z,12.98
2023-05-14T19:37:09.002Z,13.27
2023-05-14T19:40:11.363Z,14.73
2023-05-14T19:43:13.675Z,10.25
2023-05-14T19:46:15.782Z,9.45
2023-05-14T19:49:17.864Z,9.70
2023-05-14T19:52:19.927Z,9.90
2023-05-14T19:55:21.931Z,13.33
2023-05-14T19:58:24.232Z,9.35
2023-05-14T20:01:26.882Z,10.35
2023-05-14T20:04:29.015Z,11.52
2023-05-14T20:07:32.235Z,10.70
2023-05-14T20:10:34.287Z,11.63
2023-05-14T20:13:36.838Z,12.70
2023-05-14T20:16:39.085Z,10.35
2023-05-14T20:19:41.379Z,9.95
2023-05-14T20:22:44.134Z,11.50
2023-05-14T20:25:46.656Z,11.77
2023-05-14T20:28:48.799Z,13.55
2023-05-14T20:31:50.891Z,10.15
2023-05-14T20:34:52.984Z,10.98
2023-05-14T20:37:55.073Z,10.70
2023-05-14T20:40:57.342Z,12.30
2023-05-14T20:43:59.427Z,11.10
2023-05-14T20:47:01.518Z,11.23
2023-05-14T20:50:04.776Z,11.82
2023-05-14T20:53:06.921Z,10.30
2023-05-14T20:56:09.025Z,10.37
2023-05-14T20:59:11.044Z,10.50
2023-05-14T21:02:13.175Z,10.65
2023-05-14T21:05:16.514Z,13.63
2023-05-14T21:08:18.548Z,11.10
2023-05-14T21:11:22.220Z,10.57
2023-05-14T21:14:24.367Z,12.10
2023-05-14T21:17:26.433Z,8.70
2023-05-14T21:20:28.544Z,8.35
2023-05-14T21:23:30.623Z,9.93
2023-05-14T21:26:32.875Z,9.90
2023-05-14T21:29:34.959Z,10.38
2023-05-14T21:32:37.130Z,9.02
2023-05-14T21:35:39.209Z,10.23
2023-05-14T21:38:41.330Z,9.67
2023-05-14T21:41:43.436Z,9.77
2023-05-14T21:44:45.606Z,11.55
2023-05-14T21:47:47.730Z,12.00
2023-05-14T21:50:49.830Z,11.07
2023-05-14T21:53:51.819Z,14.40
2023-05-14T21:56:53.963Z,15.33
2023-05-14T21:59:55.971Z,12.27
2023-05-14T22:02:58.308Z,13.43
2023-05-14T22:06:00.789Z,10.90
2023-05-14T22:09:02.896Z,11.30
2023-05-14T22:12:06.001Z,14.87
2023-05-14T22:15:08.330Z,12.15
2023-05-14T22:18:10.529Z,12.80
2023-05-14T22:21:12.738Z,11.73
2023-05-14T22:24:14.823Z,14.93
2023-05-14T22:27:17.323Z,11.90
2023-05-14T22:30:19.339Z,14.18
2023-05-14T22:33:21.388Z,15.18
2023-05-14T22:36:23.500Z,16.08
2023-05-14T22:39:25.559Z,14.60
2023-05-14T22:42:28.547Z,15.00
2023-05-14T22:45:30.976Z,12.45
2023-05-14T22:48:33.100Z,12.75
2023-05-14T22:51:35.149Z,13.95
2023-05-14T22:54:37.244Z,13.80
2023-05-14T22:57:39.350Z,13.20
2023-05-14T23:00:41.392Z,13.70
2023-05-14T23:03:43.450Z,14.00
2023-05-14T23:06:45.569Z,14.25
2023-05-14T23:09:47.594Z,12.77
2023-05-14T23:12:49.656Z,16.40
2023-05-14T23:15:51.724Z,16.33
2023-05-14T23:18:53.913Z,13.10
2023-05-14T23:21:56.168Z,12.77
2023-05-14T23:24:58.177Z,15.30
2023-05-14T23:28:00.330Z,14.77
2023-05-14T23:31:02.564Z,15.32
2023-05-14T23:34:04.595Z,14.27
2023-05-14T23:37:06.648Z,13.67
2023-05-14T23:40:09.618Z,15.83
2023-05-14T23:43:11.622Z,13.90
2023-05-14T23:46:13.758Z,17.27
2023-05-14T23:49:15.930Z,16.83
2023-05-14T23:52:17.972Z,16.57
2023-05-14T23:55:20.210Z,16.77
2023-05-14T23:58:22.311Z,18.75
